Time;durP1;ratioP1;P1;durP2;ratioP2;P2;SDS_P1;SDS_P2;PMS_P1;PMS_P2;Temp;Humidity;BMP_temperature;BMP_pressure;BME280_temperature;BME280_humidity;BME280_pressure;Samples;Min_cycle;Max_cycle;Signal;HPM_P1;HPM_P2
2022/09/20 00:00:41;;;;;;;5.80;1.70;;;;;;;12.94;100.00;99196.44;4987133;28;20092;-92
2022/09/20 00:03:08;;;;;;;6.13;2.00;;;;;;;12.93;100.00;99195.59;4986415;28;20100;-91
2022/09/20 00:05:39;;;;;;;6.63;2.30;;;;;;;12.89;100.00;99206.13;4984592;28;20093;-93
2022/09/20 00:08:07;;;;;;;6.90;2.10;;;;;;;12.76;100.00;99201.03;5003381;28;20122;-92
2022/09/20 00:10:38;;;;;;;7.00;1.90;;;;;;;12.76;100.00;99200.13;4995505;28;20113;-92
2022/09/20 00:13:05;;;;;;;6.30;1.95;;;;;;;12.78;100.00;99188.78;5008871;28;20011;-92
2022/09/20 00:15:45;;;;;;;7.65;2.25;;;;;;;12.74;100.00;99187.06;5011990;28;20039;-92
2022/09/20 00:18:11;;;;;;;6.32;2.13;;;;;;;12.57;100.00;99184.66;4990789;28;20148;-92
2022/09/20 00:20:45;;;;;;;6.57;2.15;;;;;;;12.67;100.00;99188.03;4994887;28;20029;-93
2022/09/20 00:23:10;;;;;;;;;;;;;;;12.78;100.00;99191.41;4999658;28;20037;-92
2022/09/20 00:25:35;;;;;;;6.25;1.98;;;;;;;12.76;100.00;99189.69;5008729;28;19922;-93
2022/09/20 00:28:01;;;;;;;9.35;2.33;;;;;;;12.76;100.00;99190.56;4990188;28;20038;-92
2022/09/20 00:30:27;;;;;;;8.68;2.50;;;;;;;12.56;100.00;99180.28;4986733;28;20569;-92
2022/09/20 00:32:52;;;;;;;6.30;2.10;;;;;;;12.49;100.00;99186.47;5001521;28;20038;-92
2022/09/20 00:35:17;;;;;;;7.35;2.13;;;;;;;12.54;100.00;99187.31;4986106;28;20121;-92
2022/09/20 00:37:43;;;;;;;6.90;2.40;;;;;;;12.58;100.00;99190.72;4983874;28;20027;-93
2022/09/20 00:40:21;;;;;;;6.93;2.40;;;;;;;12.64;100.00;99188.94;4987111;28;20035;-92
2022/09/20 00:42:48;;;;;;;7.10;2.58;;;;;;;12.48;100.00;99178.63;4983721;28;20046;-92
2022/09/20 00:45:28;;;;;;;6.47;2.15;;;;;;;12.45;100.00;99182.16;4979567;28;20107;-91
2022/09/20 00:48:25;;;;;;;6.78;2.17;;;;;;;12.49;100.00;99183.84;4986012;28;20052;-91
2022/09/20 00:50:56;;;;;;;6.43;2.05;;;;;;;12.39;100.00;99188.31;4965154;28;20046;-92
2022/09/20 00:53:26;;;;;;;6.47;2.20;;;;;;;12.34;100.00;99174.41;4981937;28;20080;-92
2022/09/20 00:56:00;;;;;;;6.93;2.30;;;;;;;12.54;100.00;99183.78;4988118;28;20655;-92
2022/09/20 00:58:30;;;;;;;6.88;2.15;;;;;;;12.50;100.00;99185.59;4986195;28;20026;-90
2022/09/20 01:00:56;;;;;;;7.35;2.55;;;;;;;12.45;100.00;99192.63;4982463;28;20025;-91
2022/09/20 01:03:26;;;;;;;7.32;2.63;;;;;;;12.55;100.00;99194.25;4984293;28;20036;-92
2022/09/20 01:05:53;;;;;;;7.07;2.45;;;;;;;12.58;100.00;99194.25;5010174;28;20577;-92
2022/09/20 01:08:23;;;;;;;7.28;3.03;;;;;;;12.62;100.00;99198.56;4986085;28;21061;-92
2022/09/20 01:10:49;;;;;;;7.72;2.72;;;;;;;12.45;100.00;99190.00;4985517;28;20122;-92
2022/09/20 01:13:14;;;;;;;7.70;2.85;;;;;;;12.61;100.00;99204.66;4983254;28;20034;-93
2022/09/20 01:15:43;;;;;;;7.60;2.88;;;;;;;12.50;100.00;99200.41;4982111;28;20037;-90
2022/09/20 01:18:09;;;;;;;8.18;3.05;;;;;;;12.63;100.00;99195.03;5001465;28;20031;-92
2022/09/20 01:20:41;;;;;;;8.65;3.25;;;;;;;12.70;100.00;99205.47;4988517;28;20033;-92
2022/09/20 01:23:29;;;;;;;8.73;2.85;;;;;;;12.79;100.00;99192.28;4986356;28;20038;-92
2022/09/20 01:26:16;;;;;;;7.95;2.90;;;;;;;12.77;100.00;99194.88;4989347;28;20089;-91
2022/09/20 01:28:46;;;;;;;7.90;3.20;;;;;;;12.85;100.00;99188.72;4986087;28;20576;-93
2022/09/20 01:31:28;;;;;;;9.57;3.50;;;;;;;12.78;100.00;99183.53;4984561;28;20710;-91
2022/09/20 01:33:57;;;;;;;8.00;2.70;;;;;;;12.77;100.00;99186.19;5003732;28;20030;-92
2022/09/20 01:36:30;;;;;;;7.80;2.67;;;;;;;12.72;100.00;99173.16;4978051;28;20035;-92
2022/09/20 01:39:08;;;;;;;8.57;2.92;;;;;;;12.90;100.00;99179.94;4985231;28;20034;-92
2022/09/20 01:41:50;;;;;;;9.02;3.10;;;;;;;12.81;100.00;99188.72;4986454;28;20042;-91
2022/09/20 01:44:24;;;;;;;8.13;2.83;;;;;;;12.74;100.00;99186.22;5000494;28;20039;-91
2022/09/20 01:47:14;;;;;;;6.63;2.45;;;;;;;12.70;100.00;99176.66;4985382;28;20038;-92
2022/09/20 01:50:04;;;;;;;7.75;2.75;;;;;;;12.72;100.00;99169.66;4986700;28;20038;-91
2022/09/20 01:52:48;;;;;;;7.15;2.50;;;;;;;12.83;100.00;99180.88;4984222;28;20447;-91
2022/09/20 01:55:20;;;;;;;8.07;2.50;;;;;;;12.94;100.00;99180.75;4981424;28;20045;-92
2022/09/20 01:58:33;;;;;;;8.30;2.28;;;;;;;12.85;100.00;99171.25;5001680;28;20066;-92
2022/09/20 02:01:26;;;;;;;7.35;2.50;;;;;;;12.86;100.00;99164.25;4988130;23;20579;-92
2022/09/20 02:04:29;;;;;;;7.03;1.95;;;;;;;12.92;100.00;99166.81;4979377;28;21761;-92
2022/09/20 02:07:19;;;;;;;6.32;1.77;;;;;;;12.76;100.00;99153.91;4988175;28;20050;-92
2022/09/20 02:10:25;;;;;;;6.40;2.20;;;;;;;12.92;100.00;99159.81;4989877;28;20386;-92
2022/09/20 02:13:09;;;;;;;6.90;2.28;;;;;;;12.72;100.00;99159.19;4985109;28;20477;-92
2022/09/20 02:16:08;;;;;;;7.88;2.10;;;;;;;12.86;100.00;99153.78;4986934;28;20033;-91
2022/09/20 02:19:12;;;;;;;6.90;2.20;;;;;;;12.83;100.00;99153.84;4986656;28;20506;-92
2022/09/20 02:22:20;;;;;;;7.03;2.03;;;;;;;12.92;100.00;99159.81;4930070;29;20043;-91
2022/09/20 02:25:15;;;;;;;6.75;2.08;;;;;;;12.96;100.00;99156.28;4861890;29;20046;-92
2022/09/20 02:28:09;;;;;;;5.40;1.50;;;;;;;13.01;100.00;99152.75;4944009;29;20065;-92
2022/09/20 02:31:11;;;;;;;6.22;1.73;;;;;;;12.96;100.00;99151.03;4925127;29;20048;-92
2022/09/20 02:34:02;;;;;;;6.20;1.92;;;;;;;12.74;100.00;99142.59;4940352;29;20062;-90
2022/09/20 02:36:58;;;;;;;6.13;1.50;;;;;;;12.76;100.00;99163.50;4928033;28;20062;-90
2022/09/20 02:39:38;;;;;;;6.00;1.70;;;;;;;12.73;100.00;99150.47;4925767;29;20040;-89
2022/09/20 02:42:09;;;;;;;6.03;1.67;;;;;;;12.70;100.00;99150.50;4924113;29;20078;-92
2022/09/20 02:44:46;;;;;;;7.18;1.60;;;;;;;12.86;100.00;99146.81;4943645;28;20078;-91
2022/09/20 02:47:30;;;;;;;6.00;1.75;;;;;;;12.81;100.00;99148.63;4946494;28;20043;-90
2022/09/20 02:50:16;;;;;;;5.47;1.40;;;;;;;12.86;100.00;99149.44;4925777;29;20473;-91
2022/09/20 02:53:06;;;;;;;6.43;1.80;;;;;;;12.97;100.00;99142.31;4944172;29;20031;-90
2022/09/20 02:55:59;;;;;;;6.18;1.45;;;;;;;12.85;100.00;99147.69;4939139;29;20050;-91
2022/09/20 02:58:55;;;;;;;4.85;1.30;;;;;;;12.83;100.00;99138.97;4981965;28;20030;-91
2022/09/20 03:01:23;;;;;;;6.13;1.35;;;;;;;12.79;100.00;99155.63;4981091;28;20070;-92
2022/09/20 03:03:50;;;;;;;5.88;1.40;;;;;;;12.93;100.00;99145.84;4978005;28;20050;-91
2022/09/20 03:06:32;;;;;;;4.85;1.30;;;;;;;12.77;100.00;99129.47;4983809;28;20034;-91
2022/09/20 03:09:21;;;;;;;5.45;1.30;;;;;;;12.77;100.00;99141.69;4979288;28;20089;-91
2022/09/20 03:11:49;;;;;;;6.80;1.50;;;;;;;12.70;100.00;99135.66;4982227;28;20045;-92
2022/09/20 03:14:21;;;;;;;5.43;1.48;;;;;;;12.73;100.00;99124.28;4985556;28;20050;-91
2022/09/20 03:17:29;;;;;;;6.10;1.70;;;;;;;12.76;100.00;99124.25;4983109;28;20067;-92
2022/09/20 03:20:07;;;;;;;4.82;1.42;;;;;;;12.64;100.00;99114.81;4979586;28;20026;-91
2022/09/20 03:22:56;;;;;;;5.63;1.52;;;;;;;12.83;100.00;99117.19;5002702;28;20405;-91
2022/09/20 03:25:38;;;;;;;6.20;1.70;;;;;;;12.70;100.00;99112.09;4984235;28;20030;-91
2022/09/20 03:28:22;;;;;;;5.88;1.40;;;;;;;12.77;100.00;99112.91;4985453;28;20030;-92
2022/09/20 03:31:15;;;;;;;7.93;1.60;;;;;;;12.74;100.00;99113.81;4990838;28;20026;-92
2022/09/20 03:33:49;;;;;;;6.15;1.73;;;;;;;12.71;100.00;99113.00;4984646;28;20042;-92
2022/09/20 03:36:39;;;;;;;5.22;1.48;;;;;;;12.52;100.00;99110.56;4989812;28;20039;-90
2022/09/20 03:39:42;;;;;;;7.10;1.92;;;;;;;12.51;100.00;99110.59;5007704;28;20014;-91
2022/09/20 03:42:15;;;;;;;4.88;1.58;;;;;;;12.38;100.00;99109.88;5001120;28;20066;-92
2022/09/20 03:45:02;;;;;;;5.88;1.67;;;;;;;12.43;100.00;99108.94;4991402;28;20042;-92
2022/09/20 03:47:56;;;;;;;6.07;1.77;;;;;;;12.44;100.00;99110.66;5003120;28;20030;-91
2022/09/20 03:50:31;;;;;;;;;;;;;;;12.34;100.00;99108.16;5013781;28;20030;-91
2022/09/20 03:53:19;;;;;;;5.45;1.50;;;;;;;12.33;100.00;99111.66;5003283;28;20000;-92
2022/09/20 03:56:33;;;;;;;6.15;1.67;;;;;;;12.42;100.00;99111.56;4990534;28;20026;-92
2022/09/20 03:59:16;;;;;;;7.38;1.88;;;;;;;12.28;100.00;99106.47;4905740;29;20036;-92
2022/09/20 04:02:20;;;;;;;7.03;1.80;;;;;;;12.23;100.00;99109.16;4908962;29;20258;-90
2022/09/20 04:04:49;;;;;;;7.80;1.67;;;;;;;12.26;100.00;99098.66;4850787;29;20089;-92
2022/09/20 04:07:39;;;;;;;5.95;1.75;;;;;;;12.12;100.00;99097.91;4855257;29;20050;-91
2022/09/20 04:10:42;;;;;;;6.45;1.73;;;;;;;12.14;100.00;99096.16;4848519;29;20041;-91
2022/09/20 04:13:16;;;;;;;7.07;2.10;;;;;;;12.12;100.00;99098.78;4856186;29;20065;-91
2022/09/20 04:16:07;;;;;;;5.97;1.95;;;;;;;11.99;100.00;99091.94;4834729;29;20049;-91
2022/09/20 04:18:52;;;;;;;5.70;1.70;;;;;;;12.02;100.00;99101.50;4836049;29;20102;-91
2022/09/20 04:21:37;;;;;;;5.60;1.70;;;;;;;12.13;100.00;99094.41;4856768;29;20037;-92
2022/09/20 04:24:27;;;;;;;6.63;1.52;;;;;;;12.17;100.00;99095.25;4855130;29;20037;-92
2022/09/20 04:27:11;;;;;;;5.93;1.77;;;;;;;12.16;100.00;99083.91;4838160;29;20041;-90
2022/09/20 04:29:47;;;;;;;5.82;1.63;;;;;;;12.02;100.00;99084.06;4836180;29;20033;-91
2022/09/20 04:32:27;;;;;;;5.60;1.70;;;;;;;12.10;100.00;99084.84;4849270;29;20041;-93
2022/09/20 04:37:56;;;;;;;6.13;1.70;;;;;;;12.19;100.00;99090.88;4940006;28;20398;-92
2022/09/20 04:40:21;;;;;;;5.15;1.40;;;;;;;12.11;100.00;99098.81;4954885;28;20073;-92
2022/09/20 04:43:19;;;;;;;5.60;1.75;;;;;;;12.06;100.00;99100.59;4987730;28;20097;-93
2022/09/20 04:46:17;;;;;;;6.60;1.63;;;;;;;12.17;100.00;99103.97;4985201;28;20045;-92
2022/09/20 04:48:42;;;;;;;7.00;1.80;;;;;;;12.09;100.00;99114.50;4986821;28;20030;-91
2022/09/20 04:51:17;;;;;;;6.07;1.70;;;;;;;11.98;100.00;99111.09;4987697;28;20509;-90
2022/09/20 04:54:00;;;;;;;5.70;1.60;;;;;;;12.13;100.00;99112.72;4987268;28;20040;-91
2022/09/20 04:57:04;;;;;;;6.63;1.95;;;;;;;11.94;100.00;99112.91;4985362;28;20129;-91
2022/09/20 05:00:11;;;;;;;6.22;1.83;;;;;;;11.90;100.00;99108.53;4981649;28;20019;-92
2022/09/20 05:02:58;;;;;;;5.90;2.03;;;;;;;11.89;100.00;99111.19;4982799;28;20070;-90
2022/09/20 05:06:18;;;;;;;5.97;1.95;;;;;;;11.91;100.00;99109.41;4984653;28;20034;-92
2022/09/20 05:09:01;;;;;;;7.80;1.88;;;;;;;11.78;100.00;99108.66;4914712;28;20075;-91
2022/09/20 05:12:01;;;;;;;6.47;2.17;;;;;;;12.03;100.00;99119.78;4983889;28;20195;-91
2022/09/20 05:14:41;;;;;;;6.55;2.15;;;;;;;11.91;100.00;99109.41;4985172;28;20281;-90
2022/09/20 05:17:16;;;;;;;6.70;2.22;;;;;;;11.95;100.00;99112.03;4986107;28;20030;-90
2022/09/20 05:20:23;;;;;;;7.88;2.13;;;;;;;11.88;100.00;99109.44;4984419;28;20103;-91
2022/09/20 05:23:07;;;;;;;6.32;1.95;;;;;;;11.76;100.00;99119.13;5003092;28;20038;-91
2022/09/20 05:25:41;;;;;;;7.95;2.00;;;;;;;11.90;100.00;99124.22;4986242;28;20057;-91
2022/09/20 05:28:25;;;;;;;8.02;2.15;;;;;;;11.85;100.00;99127.75;4980118;28;20105;-91
2022/09/20 05:31:01;;;;;;;8.10;2.58;;;;;;;11.88;100.00;99123.34;4985228;28;20128;-91
2022/09/20 05:33:55;;;;;;;6.28;2.03;;;;;;;11.87;100.00;99123.38;4980956;28;20122;-92
2022/09/20 05:36:55;;;;;;;6.13;1.92;;;;;;;11.93;100.00;99132.03;4948813;28;20050;-91
2022/09/20 05:39:44;;;;;;;9.20;2.28;;;;;;;11.92;100.00;99134.66;5000216;28;20116;-90
2022/09/20 05:42:22;;;;;;;11.05;2.63;;;;;;;11.71;100.00;99120.88;4984343;28;20105;-92
2022/09/20 05:45:20;;;;;;;7.70;2.13;;;;;;;11.91;100.00;99131.19;4981644;28;20597;-91
2022/09/20 05:47:58;;;;;;;6.93;2.38;;;;;;;11.91;100.00;99136.44;4983088;28;20144;-92
2022/09/20 05:51:14;;;;;;;6.53;2.40;;;;;;;11.82;100.00;99131.25;4984340;28;20030;-92
2022/09/20 05:54:04;;;;;;;8.23;2.35;;;;;;;11.90;100.00;99139.03;4988334;28;20082;-92
2022/09/20 05:56:42;;;;;;;6.50;2.28;;;;;;;11.90;100.00;99133.78;4985748;28;20533;-90
2022/09/20 05:59:27;;;;;;;7.25;2.50;;;;;;;11.99;100.00;99144.22;4986624;28;20051;-93
2022/09/20 06:02:31;;;;;;;7.10;2.38;;;;;;;11.99;100.00;99146.81;4987682;28;20054;-92
2022/09/20 06:05:09;;;;;;;10.55;2.85;;;;;;;12.08;100.00;99153.72;5011244;28;20034;-92
2022/09/20 06:08:02;;;;;;;9.45;3.08;;;;;;;12.03;100.00;99145.06;4993260;28;20031;-91
2022/09/20 06:11:06;;;;;;;7.43;2.92;;;;;;;12.10;100.00;99147.59;4988564;28;20030;-91
2022/09/20 06:14:00;;;;;;;7.18;2.38;;;;;;;12.10;100.00;99151.97;4961932;28;20479;-91
2022/09/20 06:16:52;;;;;;;7.40;2.45;;;;;;;12.11;100.00;99158.94;4982825;28;20037;-91
2022/09/20 06:19:46;;;;;;;7.35;2.42;;;;;;;12.27;100.00;99162.28;4980018;28;20112;-92
2022/09/20 06:22:36;;;;;;;6.60;2.30;;;;;;;12.18;100.00;99150.16;4983483;28;20038;-93
2022/09/20 06:25:49;;;;;;;6.65;2.28;;;;;;;12.32;100.00;99167.44;4984818;28;20038;-94
2022/09/20 06:28:41;;;;;;;7.18;2.40;;;;;;;12.39;100.00;99174.38;4976883;28;20932;-92
2022/09/20 06:31:09;;;;;;;7.35;2.50;;;;;;;12.40;100.00;99166.50;4979575;28;20070;-92
2022/09/20 06:33:49;;;;;;;7.43;2.58;;;;;;;12.35;100.00;99164.81;4986338;28;20054;-91
2022/09/20 06:42:09;;;;;;;6.80;2.75;;;;;;;12.57;100.00;99174.19;4985235;28;20038;-90
2022/09/20 06:44:40;;;;;;;7.93;2.70;;;;;;;12.76;100.00;99176.59;5001646;28;20032;-93
2022/09/20 06:47:25;;;;;;;13.13;3.30;;;;;;;12.73;100.00;99172.25;4982928;28;20046;-92
2022/09/20 06:49:51;;;;;;;8.70;2.90;;;;;;;12.80;100.00;99170.44;4984953;28;20053;-92
2022/09/20 06:52:18;;;;;;;7.00;2.55;;;;;;;12.81;100.00;99170.41;4989212;28;20018;-92
2022/09/20 06:54:53;;;;;;;7.22;2.65;;;;;;;12.77;100.00;99170.47;4985062;28;20112;-94
2022/09/20 06:57:27;;;;;;;7.20;2.65;;;;;;;12.59;100.00;99161.94;4999469;28;20061;-92
2022/09/20 06:59:52;;;;;;;9.00;3.22;;;;;;;12.66;100.00;99173.22;4981529;28;20031;-93
2022/09/20 07:02:18;;;;;;;8.05;2.70;;;;;;;12.81;100.00;99180.03;4981036;28;20616;-93
2022/09/20 07:04:45;;;;;;;7.85;2.58;;;;;;;12.84;100.00;99181.75;4986558;28;20868;-91
2022/09/20 07:07:16;;;;;;;8.25;3.05;;;;;;;12.68;100.00;99187.16;4986587;28;20034;-91
2022/09/20 07:09:41;;;;;;;8.05;3.03;;;;;;;12.87;100.00;99184.31;4987277;28;20034;-92
2022/09/20 07:12:09;;;;;;;8.13;2.83;;;;;;;12.89;100.00;99196.50;4989879;28;20038;-92
2022/09/20 07:14:35;;;;;;;7.68;2.95;;;;;;;12.90;100.00;99179.03;4985085;28;20030;-91
2022/09/20 07:17:00;;;;;;;8.70;2.90;;;;;;;12.81;100.00;99185.25;4985791;28;20741;-92
2022/09/20 07:19:26;;;;;;;8.02;2.50;;;;;;;12.94;100.00;99191.22;4985343;28;20038;-93
2022/09/20 07:21:53;;;;;;;7.40;2.50;;;;;;;12.98;100.00;99187.69;4987659;28;20105;-92
2022/09/20 07:24:18;;;;;;;8.60;3.13;;;;;;;13.15;100.00;99182.22;4983601;28;20065;-93
2022/09/20 07:27:13;;;;;;;8.75;3.00;;;;;;;13.22;100.00;99186.53;4984994;28;20117;-93
2022/09/20 07:29:45;;;;;;;7.57;2.60;;;;;;;13.27;100.00;99187.31;4970260;28;20120;-93
2022/09/20 07:32:10;;;;;;;9.45;2.67;;;;;;;13.20;100.00;99183.03;4985422;28;20494;-93
2022/09/20 07:34:36;;;;;;;7.75;2.40;;;;;;;13.31;100.00;99182.91;4987876;28;20051;-92
2022/09/20 07:37:02;;;;;;;8.20;2.55;;;;;;;13.38;100.00;99181.13;4984100;28;20066;-92
2022/09/20 07:39:28;;;;;;;6.85;2.45;;;;;;;13.48;100.00;99187.94;4983779;28;20067;-90
2022/09/20 07:41:54;;;;;;;7.20;2.40;;;;;;;13.52;100.00;99187.03;4978456;28;20030;-91
2022/09/20 07:44:20;;;;;;;7.55;2.67;;;;;;;13.56;100.00;99190.47;4982039;28;20467;-92
2022/09/20 07:46:50;;;;;;;7.40;2.53;;;;;;;13.88;100.00;99191.75;4976776;28;20030;-94
2022/09/20 07:49:16;;;;;;;7.70;2.58;;;;;;;13.86;100.00;99185.66;4979019;28;20034;-92
2022/09/20 07:51:42;;;;;;;7.07;2.53;;;;;;;13.97;100.00;99194.22;4986967;28;20041;-90
2022/09/20 07:54:07;;;;;;;6.72;2.75;;;;;;;14.21;100.00;99194.69;4981693;28;20085;-92
2022/09/20 07:56:33;;;;;;;8.32;2.50;;;;;;;14.29;100.00;99198.06;4981794;28;20041;-92
2022/09/20 07:58:59;;;;;;;6.80;2.50;;;;;;;14.57;100.00;99194.94;4980921;28;20127;-92
2022/09/20 08:01:24;;;;;;;8.25;2.40;;;;;;;14.81;100.00;99193.69;4982023;28;20046;-92
2022/09/20 08:03:50;;;;;;;7.45;2.33;;;;;;;15.06;100.00;99201.03;4982042;28;20022;-93
2022/09/20 08:06:17;;;;;;;6.88;2.22;;;;;;;15.12;100.00;99207.03;4979804;28;20022;-93
2022/09/20 08:08:44;;;;;;;6.60;2.03;;;;;;;15.23;100.00;99206.81;4996226;28;20125;-93
2022/09/20 08:11:15;;;;;;;5.90;1.85;;;;;;;15.38;100.00;99221.41;5007063;28;20041;-92
2022/09/20 08:13:46;;;;;;;6.60;2.10;;;;;;;15.46;100.00;99223.88;4989472;28;20034;-92
2022/09/20 08:16:15;;;;;;;5.50;1.67;;;;;;;15.54;100.00;99227.19;4986217;28;20042;-92
2022/09/20 08:18:49;;;;;;;5.80;1.80;;;;;;;15.52;100.00;99240.38;4992766;28;20113;-92
2022/09/20 08:21:15;;;;;;;8.00;2.17;;;;;;;15.64;100.00;99241.88;5005663;28;20008;-90
2022/09/20 08:23:47;;;;;;;6.30;1.90;;;;;;;15.64;100.00;99244.53;4996322;28;20038;-92
2022/09/20 08:26:17;;;;;;;6.65;2.05;;;;;;;15.73;100.00;99242.56;4987702;28;20035;-92
2022/09/20 08:28:44;;;;;;;6.18;1.98;;;;;;;15.86;100.00;99244.06;4984986;28;20022;-91
2022/09/20 08:31:18;;;;;;;5.22;1.60;;;;;;;15.90;100.00;99247.50;4982932;28;20653;-91
2022/09/20 08:33:44;;;;;;;6.43;1.85;;;;;;;15.79;100.00;99255.59;4982857;28;20042;-91
2022/09/20 08:36:23;;;;;;;6.40;1.85;;;;;;;16.00;100.00;99257.75;4987517;28;20038;-91
2022/09/20 08:38:49;;;;;;;6.55;1.67;;;;;;;15.92;100.00;99261.47;4986762;28;20116;-92
2022/09/20 08:41:21;;;;;;;6.30;1.88;;;;;;;16.13;100.00;99266.25;4989831;28;20026;-92
2022/09/20 08:44:04;;;;;;;6.97;2.10;;;;;;;15.67;100.00;99259.34;4980670;28;20093;-92
2022/09/20 08:46:37;;;;;;;6.95;2.20;;;;;;;15.49;100.00;99244.81;4986253;28;20069;-93
2022/09/20 08:49:07;;;;;;;7.18;2.40;;;;;;;15.50;100.00;99241.31;4990298;28;20048;-92
2022/09/20 08:51:34;;;;;;;7.85;2.35;;;;;;;15.90;100.00;99243.09;4981666;28;20064;-93
2022/09/20 08:54:00;;;;;;;7.25;2.50;;;;;;;15.84;100.00;99240.59;4987173;28;20100;-91
2022/09/20 08:56:31;;;;;;;7.00;2.60;;;;;;;15.72;100.00;99243.47;4982781;28;20038;-91
2022/09/20 08:58:58;;;;;;;8.82;2.50;;;;;;;15.69;100.00;99250.53;4982916;28;20036;-91
2022/09/20 09:01:26;;;;;;;6.75;2.50;;;;;;;15.89;100.00;99240.50;4986725;28;20046;-91
2022/09/20 09:04:01;;;;;;;7.53;2.67;;;;;;;15.52;100.00;99250.88;5001416;28;20030;-92
2022/09/20 09:06:26;;;;;;;6.75;2.33;;;;;;;15.60;100.00;99248.13;4983603;28;20553;-92
2022/09/20 09:08:55;;;;;;;7.43;2.50;;;;;;;15.90;100.00;99253.59;4988082;28;20026;-92
2022/09/20 09:11:22;;;;;;;9.15;2.20;;;;;;;15.93;100.00;99240.38;4986539;28;20109;-92
2022/09/20 09:14:46;;;;;;;9.25;2.60;;;;;;;15.97;100.00;99247.28;4989664;28;20110;-93
2022/09/20 09:16:52;;;;;;;6.85;2.13;;;;;;;15.83;100.00;99252.88;4988942;28;20038;-91
2022/09/20 09:19:44;;;;;;;6.90;2.20;;;;;;;15.66;100.00;99258.47;4987235;28;20038;-92
2022/09/20 09:22:10;;;;;;;8.00;2.65;;;;;;;15.73;100.00;99266.22;4984189;28;20062;-91
2022/09/20 09:24:35;;;;;;;6.53;2.28;;;;;;;15.93;100.00;99266.69;4984028;28;20019;-92
2022/09/20 09:27:27;;;;;;;6.70;2.10;;;;;;;16.11;100.00;99264.53;4986679;28;20030;-93
2022/09/20 09:29:59;;;;;;;7.40;2.60;;;;;;;16.18;100.00;99266.13;4981467;28;20042;-92
2022/09/20 09:32:31;;;;;;;7.93;2.50;;;;;;;15.98;100.00;99264.81;4982957;28;20089;-92
2022/09/20 09:35:22;;;;;;;7.50;2.20;;;;;;;16.31;100.00;99271.94;4982487;28;20038;-92
2022/09/20 09:37:56;;;;;;;7.18;1.95;;;;;;;16.18;100.00;99279.28;4984996;28;20026;-93
2022/09/20 09:40:32;;;;;;;9.07;2.35;;;;;;;16.06;100.00;99272.56;4996858;28;20513;-93
2022/09/20 09:43:00;;;;;;;6.72;2.20;;;;;;;16.49;100.00;99282.03;5001337;28;20030;-92
2022/09/20 09:45:30;;;;;;;7.00;2.20;;;;;;;16.55;100.00;99281.88;5002771;28;20574;-92
2022/09/20 09:47:58;;;;;;;8.23;2.53;;;;;;;16.33;100.00;99293.84;5016036;28;20122;-93
2022/09/20 09:50:32;;;;;;;6.72;1.95;;;;;;;16.09;100.00;99290.88;4994995;28;20034;-92
2022/09/20 09:53:19;;;;;;;7.82;2.30;;;;;;;16.47;100.00;99299.63;4994498;28;20026;-91
2022/09/20 09:55:58;;;;;;;8.40;2.35;;;;;;;16.33;100.00;99302.59;4999781;28;20026;-92
2022/09/20 09:58:35;;;;;;;7.07;2.13;;;;;;;15.99;100.00;99294.59;5002493;28;20032;-93
2022/09/20 10:01:04;;;;;;;6.03;1.77;;;;;;;16.19;100.00;99292.41;4988778;28;20050;-90
2022/09/20 10:03:56;;;;;;;6.25;2.15;;;;;;;16.33;100.00;99293.84;4980342;28;20045;-90
2022/09/20 10:06:44;;;;;;;6.82;2.30;;;;;;;16.72;100.00;99285.84;4983067;28;20049;-90
2022/09/20 10:09:33;;;;;;;6.25;2.15;;;;;;;16.44;100.00;99294.44;4981507;28;20038;-90
2022/09/20 10:12:15;;;;;;;7.15;2.17;;;;;;;16.04;100.00;99295.38;4985463;28;20041;-91
2022/09/20 10:15:06;;;;;;;6.40;2.10;;;;;;;16.02;100.00;99297.19;4995157;28;20050;-91
2022/09/20 10:17:52;;;;;;;7.95;2.28;;;;;;;16.46;100.00;99305.78;4979283;28;20439;-90
2022/09/20 10:20:40;;;;;;;7.32;2.58;;;;;;;16.37;100.00;99298.13;4987502;28;20077;-90
2022/09/20 10:23:38;;;;;;;7.68;2.45;;;;;;;16.46;100.00;99299.66;4988272;28;20030;-91
2022/09/20 10:26:09;;;;;;;7.43;2.08;;;;;;;16.41;100.00;99305.06;4984092;28;21085;-91
2022/09/20 10:28:47;;;;;;;6.03;1.88;;;;;;;16.57;100.00;99302.91;4985471;28;20545;-91
2022/09/20 10:31:56;;;;;;;7.68;2.30;;;;;;;16.40;100.00;99303.31;5003376;28;20054;-91
2022/09/20 10:34:55;;;;;;;7.63;2.28;;;;;;;16.77;100.00;99307.69;5005600;28;20398;-91
2022/09/20 10:37:32;;;;;;;6.70;2.05;;;;;;;16.61;100.00;99306.34;4986423;28;20110;-91
2022/09/20 10:40:07;;;;;;;6.35;2.00;;;;;;;16.47;100.00;99301.41;4984854;28;20116;-91
2022/09/20 10:45:42;;;;;;;6.30;2.00;;;;;;;17.04;100.00;99307.91;4985312;28;20218;-90
2022/09/20 10:48:37;;;;;;;7.70;2.03;;;;;;;16.85;100.00;99318.00;4985587;28;20033;-91
2022/09/20 10:51:28;;;;;;;6.07;1.90;;;;;;;16.69;100.00;99318.41;4985521;28;20049;-92
2022/09/20 10:54:18;;;;;;;5.85;1.90;;;;;;;17.10;100.00;99323.53;4982567;28;20096;-93
2022/09/20 10:56:50;;;;;;;6.20;1.98;;;;;;;16.97;100.00;99312.44;4984080;28;20030;-91
2022/09/20 10:59:22;;;;;;;6.35;2.03;;;;;;;17.22;100.00;99323.19;4987165;28;20030;-91
2022/09/20 11:02:07;;;;;;;5.85;1.65;;;;;;;17.54;100.00;99316.16;4980703;28;20046;-92
2022/09/20 11:04:47;;;;;;;6.00;1.70;;;;;;;17.83;100.00;99321.50;4980860;28;20080;-92
2022/09/20 11:07:22;;;;;;;6.63;1.95;;;;;;;17.75;100.00;99319.94;4983932;28;20149;-92
2022/09/20 11:10:00;;;;;;;6.43;1.70;;;;;;;17.97;100.00;99319.34;4978101;28;20145;-92
2022/09/20 11:12:34;;;;;;;6.50;1.50;;;;;;;18.01;100.00;99325.38;4983245;28;20401;-92
2022/09/20 11:15:13;;;;;;;7.40;2.00;;;;;;;17.91;100.00;99327.44;4978892;28;20076;-92
2022/09/20 11:17:48;;;;;;;6.05;1.77;;;;;;;17.75;100.00;99332.28;4978289;28;20494;-92
2022/09/20 11:20:44;;;;;;;5.78;1.90;;;;;;;17.90;100.00;99323.91;4987248;28;20141;-93
2022/09/20 11:23:17;;;;;;;9.20;1.70;;;;;;;17.95;100.00;99328.22;4983663;28;20042;-92
2022/09/20 11:25:51;;;;;;;5.57;1.60;;;;;;;17.39;100.00;99335.06;4986086;28;20037;-93
2022/09/20 11:28:26;;;;;;;6.95;1.85;;;;;;;17.15;100.00;99340.09;4986720;28;20104;-92
2022/09/20 11:31:23;;;;;;;4.75;1.50;;;;;;;16.77;100.00;99331.38;4983083;28;20026;-92
2022/09/20 11:34:07;;;;;;;7.07;1.75;;;;;;;17.43;100.00;99334.06;4980914;28;20037;-92
2022/09/20 11:36:44;;;;;;;5.68;1.73;;;;;;;17.19;100.00;99340.88;4985095;28;20034;-91
2022/09/20 11:39:21;;;;;;;5.70;1.77;;;;;;;17.67;100.00;99331.66;4986868;28;20034;-92
2022/09/20 11:41:50;;;;;;;5.93;1.70;;;;;;;17.47;100.00;99334.84;4978754;28;20038;-91
2022/09/20 11:44:18;;;;;;;5.00;1.52;;;;;;;17.60;100.00;99328.31;4987995;28;20117;-93
2022/09/20 11:46:54;;;;;;;5.32;1.65;;;;;;;17.77;100.00;99334.88;4987871;28;20030;-92
2022/09/20 11:49:23;;;;;;;5.90;1.70;;;;;;;17.22;100.00;99336.38;4990802;28;20037;-92
2022/09/20 11:52:16;;;;;;;6.13;1.60;;;;;;;17.68;100.00;99339.50;4987627;28;20026;-93
2022/09/20 11:54:53;;;;;;;5.88;1.80;;;;;;;17.38;100.00;99333.31;4999276;28;20050;-92
2022/09/20 11:57:19;;;;;;;6.18;1.95;;;;;;;17.30;100.00;99328.28;4983472;28;20046;-91
2022/09/20 12:00:07;;;;;;;5.38;1.67;;;;;;;17.56;100.00;99337.22;4986714;28;20501;-91
2022/09/20 12:02:52;;;;;;;5.65;1.60;;;;;;;17.73;100.00;99336.72;4982058;28;20046;-92
2022/09/20 12:05:40;;;;;;;6.50;1.50;;;;;;;17.80;100.00;99335.66;4976887;28;20557;-92
2022/09/20 12:08:36;;;;;;;5.28;1.70;;;;;;;17.42;100.00;99331.47;4982783;28;20041;-92
2022/09/20 12:11:03;;;;;;;5.88;1.75;;;;;;;17.72;100.00;99341.16;4987276;28;20042;-92
2022/09/20 12:13:30;;;;;;;6.75;1.92;;;;;;;17.66;100.00;99336.06;4981976;28;20415;-92
2022/09/20 12:16:11;;;;;;;6.25;1.95;;;;;;;17.59;100.00;99334.47;4984760;28;20120;-91
2022/09/20 12:18:52;;;;;;;5.68;1.67;;;;;;;17.74;100.00;99331.44;4986205;28;20489;-92
2022/09/20 12:21:21;;;;;;;5.95;1.80;;;;;;;17.70;100.00;99328.91;4986173;28;20057;-92
2022/09/20 12:23:56;;;;;;;7.00;1.88;;;;;;;17.86;100.00;99332.81;4986370;28;20022;-92
2022/09/20 12:26:21;;;;;;;7.18;1.70;;;;;;;17.90;100.00;99331.81;5004657;28;20042;-92
2022/09/20 12:28:50;;;;;;;4.90;1.45;;;;;;;18.01;100.00;99336.81;4988942;28;20038;-92
2022/09/20 12:31:21;;;;;;;5.38;1.63;;;;;;;18.01;100.00;99336.81;4984177;28;20030;-93
2022/09/20 12:33:59;;;;;;;5.43;1.60;;;;;;;18.05;100.00;99338.47;5005040;28;20030;-93